Time;durP1;ratioP1;P1;durP2;ratioP2;P2;SDS_P1;SDS_P2;PMS_P1;PMS_P2;Temp;Humidity;BMP_temperature;BMP_pressure;BME280_temperature;BME280_humidity;BME280_pressure;Samples;Min_cycle;Max_cycle;Signal;HPM_P1;HPM_P2
2021/11/03 00:01:03;;;;;;;;;;;;;;;;;;5066480;28;19904;-52
2021/11/03 00:03:29;;;;;;;;;;;;;;;;;;5066875;28;19907;-50
2021/11/03 00:05:55;;;;;;;;;;;;;;;;;;5066602;28;20380;-50
2021/11/03 00:08:21;;;;;;;;;;;;;;;;;;5066482;28;19908;-52
2021/11/03 00:10:47;;;;;;;;;;;;;;;;;;5066238;28;19917;-52
2021/11/03 00:13:14;;;;;;;;;;;;;;;;;;5065813;28;20336;-51
2021/11/03 00:15:40;;;;;;;;;;;;;;;;;;5066816;28;19957;-53
2021/11/03 00:18:06;;;;;;;;;;;;;;;;;;5065981;28;19904;-51
2021/11/03 00:20:33;;;;;;;;;;;;;;;;;;5066040;28;19908;-52
2021/11/03 00:22:59;;;;;;;;;;;;;;;;;;5065735;28;19912;-52
2021/11/03 00:25:25;;;;;;;;;;;;;;;;;;5066315;28;19909;-51
2021/11/03 00:27:51;;;;;;;;;;;;;;;;;;5065970;28;20394;-49
2021/11/03 00:30:17;;;;;;;;;;;;;;;;;;5065959;28;19949;-49
2021/11/03 00:32:44;;;;;;;;;;;;;;;;;;5065797;28;20341;-49
2021/11/03 00:35:10;;;;;;;;;;;;;;;;;;5065106;28;19943;-50
2021/11/03 00:37:36;;;;;;;;;;;;;;;;;;5067541;28;20352;-51
2021/11/03 00:40:02;;;;;;;;;;;;;;;;;;5067210;28;19958;-50
2021/11/03 00:42:28;;;;;;;;;;;;;;;;;;5067603;28;19905;-50
2021/11/03 00:44:54;;;;;;;;;;;;;;;;;;5067346;28;19911;-51
2021/11/03 00:47:20;;;;;;;;;;;;;;;;;;5066464;28;19908;-51
2021/11/03 00:49:46;;;;;;;;;;;;;;;;;;5079874;28;19904;-52
2021/11/03 00:52:12;;;;;;;;;;;;;;;;;;5087250;28;19994;-49
2021/11/03 00:54:38;;;;;;;;;;;;;;;;;;5072064;28;19911;-50
2021/11/03 00:57:04;;;;;;;;;;;;;;;;;;5066866;28;19908;-49
2021/11/03 00:59:30;;;;;;;;;;;;;;;;;;5067537;28;19959;-48
2021/11/03 01:01:56;;;;;;;;;;;;;;;;;;5067174;28;20425;-52
2021/11/03 01:04:22;;;;;;;;;;;;;;;;;;5066873;28;19931;-51
2021/11/03 01:06:48;;;;;;;;;;;;;;;;;;5066951;28;19965;-50
2021/11/03 01:09:14;;;;;;;;;;;;;;;;;;5066743;28;19908;-52
2021/11/03 01:11:40;;;;;;;;;;;;;;;;;;5066773;28;19912;-52
2021/11/03 01:14:06;;;;;;;;;;;;;;;;;;5066738;28;19908;-51
2021/11/03 01:16:32;;;;;;;;;;;;;;;;;;5066449;28;20384;-52
2021/11/03 01:18:58;;;;;;;;;;;;;;;;;;5067246;28;19912;-49
2021/11/03 01:21:24;;;;;;;;;;;;;;;;;;5066903;28;20133;-51
2021/11/03 01:23:50;;;;;;;;;;;;;;;;;;5066444;28;20050;-53
2021/11/03 01:26:16;;;;;;;;;;;;;;;;;;5066376;28;19915;-50
2021/11/03 01:28:42;;;;;;;;;;;;;;;;;;5066979;28;19905;-51
2021/11/03 01:31:08;;;;;;;;;;;;;;;;;;5066621;28;19909;-52
2021/11/03 01:33:34;;;;;;;;;;;;;;;;;;5066323;28;19908;-50
2021/11/03 01:36:00;;;;;;;;;;;;;;;;;;5067140;28;19912;-50
2021/11/03 01:38:26;;;;;;;;;;;;;;;;;;5069745;28;19934;-53
2021/11/03 01:40:52;;;;;;;;;;;;;;;;;;5070747;28;20007;-51
2021/11/03 01:43:18;;;;;;;;;;;;;;;;;;5070222;28;19912;-51
2021/11/03 01:45:44;;;;;;;;;;;;;;;;;;5070591;28;19924;-53
2021/11/03 01:48:10;;;;;;;;;;;;;;;;;;5070083;28;20412;-51
2021/11/03 01:50:35;;;;;;;;;;;;;;;;;;5068836;28;19953;-50
2021/11/03 01:53:01;;;;;;;;;;;;;;;;;;5069879;28;19904;-52
2021/11/03 01:55:27;;;;;;;;;;;;;;;;;;5070991;28;19908;-51
2021/11/03 01:57:53;;;;;;;;;;;;;;;;;;5070288;28;19911;-50
2021/11/03 02:00:19;;;;;;;;;;;;;;;;;;5070352;28;19905;-49
2021/11/03 02:02:45;;;;;;;;;;;;;;;;;;5070230;28;19908;-52
2021/11/03 02:05:11;;;;;;;;;;;;;;;;;;5069610;28;20125;-52
2021/11/03 02:07:37;;;;;;;;;;;;;;;;;;5070030;28;19909;-52
2021/11/03 02:10:03;;;;;;;;;;;;;;;;;;5069813;28;19921;-53
2021/11/03 02:12:29;;;;;;;;;;;;;;;;;;5070447;28;19969;-53
2021/11/03 02:14:55;;;;;;;;;;;;;;;;;;5068346;28;19919;-52
2021/11/03 02:17:21;;;;;;;;;;;;;;;;;;5070071;28;20218;-50
2021/11/03 02:19:47;;;;;;;;;;;;;;;;;;5069730;28;19908;-52
2021/11/03 02:22:13;;;;;;;;;;;;;;;;;;5069492;28;19904;-51
2021/11/03 02:24:39;;;;;;;;;;;;;;;;;;5069819;28;19950;-51
2021/11/03 02:27:05;;;;;;;;;;;;;;;;;;5069443;28;19908;-52
2021/11/03 02:29:31;;;;;;;;;;;;;;;;;;5070360;28;20007;-52
2021/11/03 02:31:57;;;;;;;;;;;;;;;;;;5070116;28;19916;-51
2021/11/03 02:34:23;;;;;;;;;;;;;;;;;;5069250;28;19966;-51
2021/11/03 02:36:49;;;;;;;;;;;;;;;;;;5069581;28;19911;-53
2021/11/03 02:39:15;;;;;;;;;;;;;;;;;;5067974;28;19909;-52
2021/11/03 02:41:41;;;;;;;;;;;;;;;;;;5069598;28;19908;-51
2021/11/03 02:44:07;;;;;;;;;;;;;;;;;;5069087;28;19947;-50
2021/11/03 02:46:33;;;;;;;;;;;;;;;;;;5069669;28;19905;-50
2021/11/03 02:48:59;;;;;;;;;;;;;;;;;;5083689;28;19927;-51
2021/11/03 02:51:25;;;;;;;;;;;;;;;;;;5089380;28;19912;-51
2021/11/03 02:53:51;;;;;;;;;;;;;;;;;;5088281;28;19908;-49
2021/11/03 02:56:17;;;;;;;;;;;;;;;;;;5089285;28;19935;-53
2021/11/03 02:58:43;;;;;;;;;;;;;;;;;;5087422;28;19900;-50
2021/11/03 03:01:09;;;;;;;;;;;;;;;;;;5068895;28;20033;-49
2021/11/03 03:03:34;;;;;;;;;;;;;;;;;;5068716;28;20706;-53
2021/11/03 03:06:00;;;;;;;;;;;;;;;;;;5069341;28;19908;-53
2021/11/03 03:08:26;;;;;;;;;;;;;;;;;;5069037;28;19912;-53
2021/11/03 03:10:52;;;;;;;;;;;;;;;;;;5069104;28;20006;-49
2021/11/03 03:13:18;;;;;;;;;;;;;;;;;;5067169;28;19904;-49
2021/11/03 03:15:44;;;;;;;;;;;;;;;;;;5068107;28;19911;-51
2021/11/03 03:18:10;;;;;;;;;;;;;;;;;;5068301;28;19962;-50
2021/11/03 03:20:36;;;;;;;;;;;;;;;;;;5068856;28;20005;-50
2021/11/03 03:23:02;;;;;;;;;;;;;;;;;;5068555;28;20367;-51
2021/11/03 03:25:28;;;;;;;;;;;;;;;;;;5069411;28;19904;-49
2021/11/03 03:27:54;;;;;;;;;;;;;;;;;;5068513;28;19935;-52
2021/11/03 03:30:20;;;;;;;;;;;;;;;;;;5068491;28;20521;-52
2021/11/03 03:32:46;;;;;;;;;;;;;;;;;;5068676;28;19916;-48
2021/11/03 03:35:12;;;;;;;;;;;;;;;;;;5068217;28;19905;-49
2021/11/03 03:37:38;;;;;;;;;;;;;;;;;;5068779;28;19934;-48
2021/11/03 03:40:05;;;;;;;;;;;;;;;;;;5068093;28;19905;-49
2021/11/03 03:42:31;;;;;;;;;;;;;;;;;;5068568;28;19905;-49
2021/11/03 03:44:57;;;;;;;;;;;;;;;;;;5068710;28;19908;-51
2021/11/03 03:47:23;;;;;;;;;;;;;;;;;;5067844;28;19909;-52
2021/11/03 03:49:49;;;;;;;;;;;;;;;;;;5067653;28;20458;-50
2021/11/03 03:52:15;;;;;;;;;;;;;;;;;;5067807;28;19916;-52
2021/11/03 03:54:41;;;;;;;;;;;;;;;;;;5068069;28;19908;-52
2021/11/03 03:57:07;;;;;;;;;;;;;;;;;;5067891;28;19908;-52
2021/11/03 03:59:33;;;;;;;;;;;;;;;;;;5066903;28;19908;-51
2021/11/03 04:01:59;;;;;;;;;;;;;;;;;;5068341;28;20452;-53
2021/11/03 04:04:25;;;;;;;;;;;;;;;;;;5067710;28;19916;-52
2021/11/03 04:06:51;;;;;;;;;;;;;;;;;;5068062;28;19913;-50
2021/11/03 04:09:17;;;;;;;;;;;;;;;;;;5066603;28;19970;-51
2021/11/03 04:11:43;;;;;;;;;;;;;;;;;;5083311;28;19912;-49
2021/11/03 04:14:09;;;;;;;;;;;;;;;;;;5087705;28;19904;-51
2021/11/03 04:16:35;;;;;;;;;;;;;;;;;;5087736;28;19915;-51
2021/11/03 04:19:02;;;;;;;;;;;;;;;;;;5087998;28;19907;-52
2021/11/03 04:21:28;;;;;;;;;;;;;;;;;;5088320;28;19904;-49
2021/11/03 04:23:54;;;;;;;;;;;;;;;;;;5087619;28;19908;-53
2021/11/03 04:26:20;;;;;;;;;;;;;;;;;;5088124;28;19911;-51
2021/11/03 04:28:46;;;;;;;;;;;;;;;;;;5087698;28;19908;-52
2021/11/03 04:31:12;;;;;;;;;;;;;;;;;;5087411;28;20003;-51
2021/11/03 04:33:38;;;;;;;;;;;;;;;;;;5087277;28;19904;-52
2021/11/03 04:36:04;;;;;;;;;;;;;;;;;;5087484;28;19904;-52
2021/11/03 04:38:30;;;;;;;;;;;;;;;;;;5074285;28;19908;-54
2021/11/03 04:40:56;;;;;;;;;;;;;;;;;;5067335;28;19912;-52
2021/11/03 04:43:22;;;;;;;;;;;;;;;;;;5067292;28;20252;-53
2021/11/03 04:45:48;;;;;;;;;;;;;;;;;;5067255;28;19939;-52
2021/11/03 04:48:14;;;;;;;;;;;;;;;;;;5066210;28;19958;-53
2021/11/03 04:50:39;;;;;;;;;;;;;;;;;;5067124;28;19904;-50
2021/11/03 04:53:05;;;;;;;;;;;;;;;;;;5066888;28;19931;-50
2021/11/03 04:55:32;;;;;;;;;;;;;;;;;;5067858;28;19908;-49
2021/11/03 04:57:58;;;;;;;;;;;;;;;;;;5076365;28;20355;-50
2021/11/03 05:00:24;;;;;;;;;;;;;;;;;;5086958;28;19947;-50
2021/11/03 05:02:51;;;;;;;;;;;;;;;;;;5086994;28;19995;-50
2021/11/03 05:05:17;;;;;;;;;;;;;;;;;;5086982;28;20486;-50
2021/11/03 05:07:43;;;;;;;;;;;;;;;;;;5087403;28;19908;-49
2021/11/03 05:10:09;;;;;;;;;;;;;;;;;;5073361;28;19912;-49
2021/11/03 05:12:34;;;;;;;;;;;;;;;;;;5066750;28;20369;-51
2021/11/03 05:15:00;;;;;;;;;;;;;;;;;;5067334;28;19904;-49
2021/11/03 05:17:26;;;;;;;;;;;;;;;;;;5074608;28;19969;-49
2021/11/03 05:19:52;;;;;;;;;;;;;;;;;;5087321;28;20275;-49
2021/11/03 05:22:19;;;;;;;;;;;;;;;;;;5085402;28;20299;-49
2021/11/03 05:24:45;;;;;;;;;;;;;;;;;;5087016;28;19907;-52
2021/11/03 05:27:11;;;;;;;;;;;;;;;;;;5086662;28;19900;-49
2021/11/03 05:29:36;;;;;;;;;;;;;;;;;;5087000;28;19904;-53
2021/11/03 05:32:02;;;;;;;;;;;;;;;;;;5086756;28;20359;-51
2021/11/03 05:34:28;;;;;;;;;;;;;;;;;;5087611;28;20028;-52
2021/11/03 05:36:54;;;;;;;;;;;;;;;;;;5086511;28;19908;-51
2021/11/03 05:39:21;;;;;;;;;;;;;;;;;;5082137;28;19909;-53
2021/11/03 05:41:47;;;;;;;;;;;;;;;;;;5066692;28;20320;-52
2021/11/03 05:44:13;;;;;;;;;;;;;;;;;;5066312;28;19911;-52
2021/11/03 05:46:39;;;;;;;;;;;;;;;;;;5066463;28;19908;-53
2021/11/03 05:49:06;;;;;;;;;;;;;;;;;;5066082;28;19950;-49
2021/11/03 05:51:32;;;;;;;;;;;;;;;;;;5067093;28;19908;-54
2021/11/03 05:53:58;;;;;;;;;;;;;;;;;;5066838;28;19905;-53
2021/11/03 05:56:24;;;;;;;;;;;;;;;;;;5066234;28;19916;-50
2021/11/03 05:58:51;;;;;;;;;;;;;;;;;;5066516;28;19904;-53
2021/11/03 06:01:17;;;;;;;;;;;;;;;;;;5066202;28;20063;-49
2021/11/03 06:03:42;;;;;;;;;;;;;;;;;;5066361;28;19911;-49
2021/11/03 06:06:08;;;;;;;;;;;;;;;;;;5066189;28;19904;-50
2021/11/03 06:08:34;;;;;;;;;;;;;;;;;;5066519;28;19908;-51
2021/11/03 06:11:00;;;;;;;;;;;;;;;;;;5066643;28;19919;-52
2021/11/03 06:13:26;;;;;;;;;;;;;;;;;;5079070;28;19981;-50
2021/11/03 06:15:52;;;;;;;;;;;;;;;;;;5084754;28;19908;-52
2021/11/03 06:18:18;;;;;;;;;;;;;;;;;;5084980;28;19904;-53
2021/11/03 06:20:44;;;;;;;;;;;;;;;;;;5085215;28;19912;-50
2021/11/03 06:23:10;;;;;;;;;;;;;;;;;;5085886;28;20294;-51
2021/11/03 06:25:37;;;;;;;;;;;;;;;;;;5087964;28;19961;-51
2021/11/03 06:28:03;;;;;;;;;;;;;;;;;;5075520;28;20422;-49
2021/11/03 06:30:29;;;;;;;;;;;;;;;;;;5090487;28;19911;-52
2021/11/03 06:32:55;;;;;;;;;;;;;;;;;;5078691;28;20529;-52
2021/11/03 06:35:21;;;;;;;;;;;;;;;;;;5069334;28;19908;-51
2021/11/03 06:37:47;;;;;;;;;;;;;;;;;;5103094;28;19967;-51
2021/11/03 06:40:13;;;;;;;;;;;;;;;;;;5109457;28;19910;-49
2021/11/03 06:42:39;;;;;;;;;;;;;;;;;;5109817;28;19911;-53
2021/11/03 06:45:05;;;;;;;;;;;;;;;;;;5098649;28;19908;-49
2021/11/03 06:47:31;;;;;;;;;;;;;;;;;;5090206;28;19954;-52
2021/11/03 06:49:57;;;;;;;;;;;;;;;;;;5089206;28;19939;-52
2021/11/03 06:52:23;;;;;;;;;;;;;;;;;;5069623;28;19916;-49
2021/11/03 06:54:50;;;;;;;;;;;;;;;;;;5069262;28;19936;-49
2021/11/03 06:57:16;;;;;;;;;;;;;;;;;;5068898;28;20003;-51
2021/11/03 06:59:42;;;;;;;;;;;;;;;;;;5073492;28;20414;-49
2021/11/03 07:02:09;;;;;;;;;;;;;;;;;;5088906;28;19904;-49
2021/11/03 07:04:35;;;;;;;;;;;;;;;;;;5089454;28;19904;-49
2021/11/03 07:07:01;;;;;;;;;;;;;;;;;;5089734;28;19904;-48
2021/11/03 07:09:26;;;;;;;;;;;;;;;;;;5089201;28;19977;-51
2021/11/03 07:11:53;;;;;;;;;;;;;;;;;;5088982;28;19912;-52
2021/11/03 07:14:19;;;;;;;;;;;;;;;;;;5079807;28;19907;-52
2021/11/03 07:16:45;;;;;;;;;;;;;;;;;;5086956;28;20268;-52
2021/11/03 07:19:11;;;;;;;;;;;;;;;;;;5084287;28;19905;-52
2021/11/03 07:21:36;;;;;;;;;;;;;;;;;;5068941;28;19908;-51
2021/11/03 07:24:02;;;;;;;;;;;;;;;;;;5068692;28;19904;-51
2021/11/03 07:26:28;;;;;;;;;;;;;;;;;;5069157;28;19911;-48
2021/11/03 07:28:54;;;;;;;;;;;;;;;;;;5068714;28;19974;-50
2021/11/03 07:31:21;;;;;;;;;;;;;;;;;;5072727;28;20613;-51
2021/11/03 07:33:47;;;;;;;;;;;;;;;;;;5081806;28;20085;-49
2021/11/03 07:36:13;;;;;;;;;;;;;;;;;;5107694;28;20028;-50
2021/11/03 07:38:39;;;;;;;;;;;;;;;;;;5096775;28;20323;-49
2021/11/03 07:41:05;;;;;;;;;;;;;;;;;;5102110;28;19915;-51
2021/11/03 07:43:31;;;;;;;;;;;;;;;;;;5088965;28;19940;-50
2021/11/03 07:45:59;;;;;;;;;;;;;;;;;;5088755;28;19908;-52
2021/11/03 07:48:26;;;;;;;;;;;;;;;;;;5088139;28;19911;-50
2021/11/03 07:50:51;;;;;;;;;;;;;;;;;;5094789;28;20359;-52
2021/11/03 07:53:17;;;;;;;;;;;;;;;;;;5108538;28;19947;-50
2021/11/03 07:55:43;;;;;;;;;;;;;;;;;;5099067;28;19915;-52
2021/11/03 07:58:09;;;;;;;;;;;;;;;;;;5082743;28;19974;-52
2021/11/03 08:00:35;;;;;;;;;;;;;;;;;;5074553;28;19908;-53
2021/11/03 08:03:01;;;;;;;;;;;;;;;;;;5073171;28;19924;-51
2021/11/03 08:05:28;;;;;;;;;;;;;;;;;;5067138;28;20006;-52
2021/11/03 08:07:54;;;;;;;;;;;;;;;;;;5066951;28;20296;-51
2021/11/03 08:10:20;;;;;;;;;;;;;;;;;;5077584;28;19920;-51
2021/11/03 08:12:46;;;;;;;;;;;;;;;;;;5077023;28;19920;-50
2021/11/03 08:15:12;;;;;;;;;;;;;;;;;;5082238;28;19908;-51
2021/11/03 08:17:38;;;;;;;;;;;;;;;;;;5083093;28;19999;-51
2021/11/03 08:20:05;;;;;;;;;;;;;;;;;;5080627;28;19999;-52
2021/11/03 08:22:33;;;;;;;;;;;;;;;;;;5083464;28;19920;-52
2021/11/03 08:24:58;;;;;;;;;;;;;;;;;;5077346;28;19954;-50
2021/11/03 08:27:25;;;;;;;;;;;;;;;;;;5087437;28;19920;-50
2021/11/03 08:29:50;;;;;;;;;;;;;;;;;;5086491;28;19914;-52
2021/11/03 08:32:16;;;;;;;;;;;;;;;;;;5086274;28;19911;-50
2021/11/03 08:34:42;;;;;;;;;;;;;;;;;;5067343;28;20351;-52
2021/11/03 08:37:08;;;;;;;;;;;;;;;;;;5065913;28;19965;-52
2021/11/03 08:39:34;;;;;;;;;;;;;;;;;;5066065;28;19976;-52
2021/11/03 08:42:00;;;;;;;;;;;;;;;;;;5078026;28;19908;-51
2021/11/03 08:44:27;;;;;;;;;;;;;;;;;;5075700;28;19912;-49
2021/11/03 08:46:53;;;;;;;;;;;;;;;;;;5086333;28;20310;-53
2021/11/03 08:49:19;;;;;;;;;;;;;;;;;;5086085;28;19904;-52
2021/11/03 08:51:45;;;;;;;;;;;;;;;;;;5074428;28;19912;-51
2021/11/03 08:54:11;;;;;;;;;;;;;;;;;;5073333;28;20306;-49
2021/11/03 08:56:38;;;;;;;;;;;;;;;;;;5084819;28;19923;-51
2021/11/03 08:59:05;;;;;;;;;;;;;;;;;;5084282;28;19993;-53
2021/11/03 09:01:30;;;;;;;;;;;;;;;;;;5083600;28;20366;-53
2021/11/03 09:03:56;;;;;;;;;;;;;;;;;;5082384;28;19923;-53
2021/11/03 09:06:22;;;;;;;;;;;;;;;;;;5067546;28;19914;-52
2021/11/03 09:08:50;;;;;;;;;;;;;;;;;;5074360;28;19966;-52
2021/11/03 09:11:17;;;;;;;;;;;;;;;;;;5078084;28;19916;-51
2021/11/03 09:13:43;;;;;;;;;;;;;;;;;;5065681;28;19911;-54
2021/11/03 09:16:08;;;;;;;;;;;;;;;;;;5066505;28;19905;-53
2021/11/03 09:18:34;;;;;;;;;;;;;;;;;;5086262;28;20333;-50
2021/11/03 09:21:00;;;;;;;;;;;;;;;;;;5087070;28;19990;-50
2021/11/03 09:23:26;;;;;;;;;;;;;;;;;;5086048;28;19930;-50
2021/11/03 09:25:52;;;;;;;;;;;;;;;;;;5085208;28;19908;-52
2021/11/03 09:28:18;;;;;;;;;;;;;;;;;;5066320;28;19909;-51
2021/11/03 09:30:44;;;;;;;;;;;;;;;;;;5067028;28;19912;-50
2021/11/03 09:33:10;;;;;;;;;;;;;;;;;;5065475;28;19908;-52
2021/11/03 09:35:36;;;;;;;;;;;;;;;;;;5065898;28;19908;-52
2021/11/03 09:38:03;;;;;;;;;;;;;;;;;;5065764;28;19908;-52
2021/11/03 09:40:29;;;;;;;;;;;;;;;;;;5075124;28;19908;-53
2021/11/03 09:42:56;;;;;;;;;;;;;;;;;;5071038;28;19908;-53
2021/11/03 09:45:22;;;;;;;;;;;;;;;;;;5065554;28;20458;-53
2021/11/03 09:47:48;;;;;;;;;;;;;;;;;;5065650;28;19905;-50
2021/11/03 09:50:14;;;;;;;;;;;;;;;;;;5077302;28;19909;-52
2021/11/03 09:52:40;;;;;;;;;;;;;;;;;;5084894;28;20324;-51
2021/11/03 09:55:06;;;;;;;;;;;;;;;;;;5074090;28;19912;-52
2021/11/03 09:57:33;;;;;;;;;;;;;;;;;;5065841;28;19912;-52
2021/11/03 09:59:59;;;;;;;;;;;;;;;;;;5069719;28;19904;-53
2021/11/03 10:02:25;;;;;;;;;;;;;;;;;;5080990;28;19912;-52
2021/11/03 10:04:51;;;;;;;;;;;;;;;;;;5084218;28;20001;-53
2021/11/03 10:07:17;;;;;;;;;;;;;;;;;;5076563;28;20363;-51
2021/11/03 10:09:43;;;;;;;;;;;;;;;;;;5075658;28;19919;-50
2021/11/03 10:12:09;;;;;;;;;;;;;;;;;;5088056;28;20177;-53
2021/11/03 10:14:35;;;;;;;;;;;;;;;;;;5085834;28;20355;-50
2021/11/03 10:17:01;;;;;;;;;;;;;;;;;;5078844;28;19911;-49
2021/11/03 10:19:27;;;;;;;;;;;;;;;;;;5086425;28;20346;-50
2021/11/03 10:21:54;;;;;;;;;;;;;;;;;;5085646;28;19908;-52
2021/11/03 10:24:20;;;;;;;;;;;;;;;;;;5078194;28;19908;-52
2021/11/03 10:26:46;;;;;;;;;;;;;;;;;;5087708;28;19912;-52
2021/11/03 10:29:12;;;;;;;;;;;;;;;;;;5079026;28;20286;-52
2021/11/03 10:31:39;;;;;;;;;;;;;;;;;;5068831;28;19908;-51
2021/11/03 10:34:04;;;;;;;;;;;;;;;;;;5068455;28;19904;-50
2021/11/03 10:36:32;;;;;;;;;;;;;;;;;;5069728;28;19912;-53
2021/11/03 10:39:01;;;;;;;;;;;;;;;;;;5072697;28;20397;-51
2021/11/03 10:41:27;;;;;;;;;;;;;;;;;;5072747;28;20495;-52
2021/11/03 10:43:53;;;;;;;;;;;;;;;;;;5068172;28;19911;-51
2021/11/03 10:46:20;;;;;;;;;;;;;;;;;;5068965;28;19994;-49
2021/11/03 10:48:52;;;;;;;;;;;;;;;;;;5068152;28;20509;-51
2021/11/03 10:51:18;;;;;;;;;;;;;;;;;;5084226;28;20408;-52
2021/11/03 10:53:44;;;;;;;;;;;;;;;;;;5096920;28;19964;-53
2021/11/03 10:56:10;;;;;;;;;;;;;;;;;;5097178;28;19903;-52
2021/11/03 10:58:36;;;;;;;;;;;;;;;;;;5096698;28;19912;-51
2021/11/03 11:01:02;;;;;;;;;;;;;;;;;;5109085;28;19909;-53
2021/11/03 11:03:28;;;;;;;;;;;;;;;;;;5101396;28;20442;-54
2021/11/03 11:05:54;;;;;;;;;;;;;;;;;;5083346;28;19915;-52
2021/11/03 11:08:20;;;;;;;;;;;;;;;;;;5077576;28;20474;-53
2021/11/03 11:10:46;;;;;;;;;;;;;;;;;;5076249;28;19920;-54
2021/11/03 11:13:12;;;;;;;;;;;;;;;;;;5078272;28;19916;-51
2021/11/03 11:15:39;;;;;;;;;;;;;;;;;;5082014;28;19908;-54
2021/11/03 11:18:05;;;;;;;;;;;;;;;;;;5078816;28;20386;-51
2021/11/03 11:20:31;;;;;;;;;;;;;;;;;;5084775;28;19908;-52
2021/11/03 11:22:57;;;;;;;;;;;;;;;;;;5089230;28;19912;-53
2021/11/03 11:25:23;;;;;;;;;;;;;;;;;;5084625;28;19960;-51
2021/11/03 11:27:49;;;;;;;;;;;;;;;;;;5077862;28;20002;-52
2021/11/03 11:30:16;;;;;;;;;;;;;;;;;;5080763;28;20397;-52
2021/11/03 11:32:42;;;;;;;;;;;;;;;;;;5078900;28;19916;-52
2021/11/03 11:35:08;;;;;;;;;;;;;;;;;;5091284;28;20419;-49
2021/11/03 11:37:33;;;;;;;;;;;;;;;;;;5099322;28;19904;-51
2021/11/03 11:40:00;;;;;;;;;;;;;;;;;;5088061;28;19933;-49
2021/11/03 11:42:26;;;;;;;;;;;;;;;;;;5092772;28;19998;-52
2021/11/03 11:44:52;;;;;;;;;;;;;;;;;;5099243;28;19986;-51
2021/11/03 11:47:18;;;;;;;;;;;;;;;;;;5088700;28;19908;-53
2021/11/03 11:49:44;;;;;;;;;;;;;;;;;;5099053;28;19912;-51
2021/11/03 11:52:10;;;;;;;;;;;;;;;;;;5073477;28;19915;-52
2021/11/03 11:54:36;;;;;;;;;;;;;;;;;;5089876;28;19912;-51
2021/11/03 11:57:02;;;;;;;;;;;;;;;;;;5095681;28;19916;-51
2021/11/03 11:59:28;;;;;;;;;;;;;;;;;;5102639;28;19990;-52
2021/11/03 12:01:54;;;;;;;;;;;;;;;;;;5093833;28;19911;-52
2021/11/03 12:04:20;;;;;;;;;;;;;;;;;;5091602;28;19908;-51
2021/11/03 12:06:46;;;;;;;;;;;;;;;;;;5109074;28;19943;-49
2021/11/03 12:09:12;;;;;;;;;;;;;;;;;;5100254;28;19908;-52
2021/11/03 12:11:38;;;;;;;;;;;;;;;;;;5073909;28;19919;-51
2021/11/03 12:14:04;;;;;;;;;;;;;;;;;;5076148;28;19940;-48
2021/11/03 12:16:30;;;;;;;;;;;;;;;;;;5089188;28;19911;-51
2021/11/03 12:18:56;;;;;;;;;;;;;;;;;;5099349;28;19962;-49
2021/11/03 12:21:22;;;;;;;;;;;;;;;;;;5082476;28;19908;-51
2021/11/03 12:23:51;;;;;;;;;;;;;;;;;;5079268;28;19909;-51
2021/11/03 12:26:17;;;;;;;;;;;;;;;;;;5070369;28;19982;-49
2021/11/03 12:28:43;;;;;;;;;;;;;;;;;;5094495;28;20404;-50
2021/11/03 12:31:10;;;;;;;;;;;;;;;;;;5096665;28;19903;-51
2021/11/03 12:33:36;;;;;;;;;;;;;;;;;;5092414;28;19912;-52
2021/11/03 12:36:02;;;;;;;;;;;;;;;;;;5087562;28;20409;-51
2021/11/03 12:38:28;;;;;;;;;;;;;;;;;;5091985;28;19911;-51
2021/11/03 12:40:54;;;;;;;;;;;;;;;;;;5087302;28;19915;-49
2021/11/03 12:43:20;;;;;;;;;;;;;;;;;;5069526;28;20038;-50
2021/11/03 12:45:46;;;;;;;;;;;;;;;;;;5081577;28;19919;-48
2021/11/03 12:48:14;;;;;;;;;;;;;;;;;;5070542;28;20011;-50
2021/11/03 12:50:41;;;;;;;;;;;;;;;;;;5086782;28;19912;-49
2021/11/03 12:53:07;;;;;;;;;;;;;;;;;;5082313;28;20367;-51
2021/11/03 12:55:33;;;;;;;;;;;;;;;;;;5069945;28;19908;-51
2021/11/03 12:58:00;;;;;;;;;;;;;;;;;;5072066;28;19904;-51
2021/11/03 13:00:26;;;;;;;;;;;;;;;;;;5087530;28;19915;-52
2021/11/03 13:02:52;;;;;;;;;;;;;;;;;;5086327;28;19904;-51
2021/11/03 13:05:19;;;;;;;;;;;;;;;;;;5087864;28;19904;-50
2021/11/03 13:07:46;;;;;;;;;;;;;;;;;;5073941;28;19911;-50
2021/11/03 13:10:11;;;;;;;;;;;;;;;;;;5068058;28;19991;-50
2021/11/03 13:12:37;;;;;;;;;;;;;;;;;;5071843;28;20007;-52
2021/11/03 13:15:03;;;;;;;;;;;;;;;;;;5079266;28;20283;-51
2021/11/03 13:17:29;;;;;;;;;;;;;;;;;;5078353;28;19912;-51
2021/11/03 13:19:55;;;;;;;;;;;;;;;;;;5068231;28;19913;-51
2021/11/03 13:22:21;;;;;;;;;;;;;;;;;;5067680;28;19944;-50
2021/11/03 13:24:48;;;;;;;;;;;;;;;;;;5068751;28;20011;-52
2021/11/03 13:27:14;;;;;;;;;;;;;;;;;;5076737;28;19908;-52
2021/11/03 13:29:41;;;;;;;;;;;;;;;;;;5068566;28;19914;-49
2021/11/03 13:32:07;;;;;;;;;;;;;;;;;;5084610;28;20425;-50
2021/11/03 13:34:33;;;;;;;;;;;;;;;;;;5076965;28;19969;-48
2021/11/03 13:36:59;;;;;;;;;;;;;;;;;;5088070;28;19915;-49
2021/11/03 13:39:28;;;;;;;;;;;;;;;;;;5091057;28;20288;-51
2021/11/03 13:41:54;;;;;;;;;;;;;;;;;;5090849;28;20378;-50
2021/11/03 13:44:19;;;;;;;;;;;;;;;;;;5088206;28;19904;-50
2021/11/03 13:46:47;;;;;;;;;;;;;;;;;;5089507;28;19910;-50
2021/11/03 13:49:13;;;;;;;;;;;;;;;;;;5088841;28;19915;-50
2021/11/03 13:51:40;;;;;;;;;;;;;;;;;;5089364;28;20316;-49
2021/11/03 13:54:06;;;;;;;;;;;;;;;;;;5089117;28;20115;-50
2021/11/03 13:56:32;;;;;;;;;;;;;;;;;;5089061;28;19908;-52
2021/11/03 13:58:58;;;;;;;;;;;;;;;;;;5089555;28;20032;-49
2021/11/03 14:01:25;;;;;;;;;;;;;;;;;;5088002;28;20371;-52
2021/11/03 14:03:51;;;;;;;;;;;;;;;;;;5088943;28;19908;-51
2021/11/03 14:06:17;;;;;;;;;;;;;;;;;;5088889;28;19912;-53
2021/11/03 14:08:44;;;;;;;;;;;;;;;;;;5089191;28;19911;-50
2021/11/03 14:11:10;;;;;;;;;;;;;;;;;;5088330;28;20404;-49
2021/11/03 14:13:36;;;;;;;;;;;;;;;;;;5088919;28;19908;-51
2021/11/03 14:16:03;;;;;;;;;;;;;;;;;;5089304;28;19907;-49
2021/11/03 14:18:30;;;;;;;;;;;;;;;;;;5089434;28;19910;-52
2021/11/03 14:20:57;;;;;;;;;;;;;;;;;;5088575;28;19941;-51
2021/11/03 14:23:24;;;;;;;;;;;;;;;;;;5088721;28;19998;-51
2021/11/03 14:25:50;;;;;;;;;;;;;;;;;;5088741;28;19934;-51
2021/11/03 14:28:16;;;;;;;;;;;;;;;;;;5088659;28;19907;-52
2021/11/03 14:30:43;;;;;;;;;;;;;;;;;;5088835;28;20383;-51
2021/11/03 14:33:09;;;;;;;;;;;;;;;;;;5088220;28;19908;-50
2021/11/03 14:35:35;;;;;;;;;;;;;;;;;;5086993;28;19926;-48
2021/11/03 14:38:01;;;;;;;;;;;;;;;;;;5088933;28;19910;-52
2021/11/03 14:40:27;;;;;;;;;;;;;;;;;;5088692;28;19908;-50
2021/11/03 14:42:53;;;;;;;;;;;;;;;;;;5088496;28;19908;-48
2021/11/03 14:45:18;;;;;;;;;;;;;;;;;;5087361;28;20446;-50
2021/11/03 14:47:44;;;;;;;;;;;;;;;;;;5088337;28;19904;-50
2021/11/03 14:50:10;;;;;;;;;;;;;;;;;;5087863;28;19904;-50
2021/11/03 14:52:38;;;;;;;;;;;;;;;;;;5088184;28;19923;-49
2021/11/03 14:55:05;;;;;;;;;;;;;;;;;;5087663;28;19911;-50
2021/11/03 14:57:31;;;;;;;;;;;;;;;;;;5088911;28;20138;-51
2021/11/03 14:59:58;;;;;;;;;;;;;;;;;;5088543;28;19919;-49
2021/11/03 15:02:24;;;;;;;;;;;;;;;;;;5088053;28;19911;-51
2021/11/03 15:04:51;;;;;;;;;;;;;;;;;;5087778;28;19904;-50
2021/11/03 15:07:18;;;;;;;;;;;;;;;;;;5087765;28;20382;-50
2021/11/03 15:09:44;;;;;;;;;;;;;;;;;;5087823;28;19907;-50
2021/11/03 15:12:10;;;;;;;;;;;;;;;;;;5087581;28;20306;-51
2021/11/03 15:14:37;;;;;;;;;;;;;;;;;;5087853;28;19908;-48
2021/11/03 15:17:03;;;;;;;;;;;;;;;;;;5087579;28;19908;-50
2021/11/03 15:19:30;;;;;;;;;;;;;;;;;;5088190;28;20065;-50
2021/11/03 15:21:56;;;;;;;;;;;;;;;;;;5087354;28;19969;-51
2021/11/03 15:24:22;;;;;;;;;;;;;;;;;;5087502;28;20389;-51
2021/11/03 15:26:48;;;;;;;;;;;;;;;;;;5087572;28;19904;-51
2021/11/03 15:29:15;;;;;;;;;;;;;;;;;;5087231;28;20311;-51
2021/11/03 15:31:41;;;;;;;;;;;;;;;;;;5087415;28;19908;-50
2021/11/03 15:34:07;;;;;;;;;;;;;;;;;;5087349;28;19912;-48
2021/11/03 15:36:33;;;;;;;;;;;;;;;;;;5085950;28;19904;-51
2021/11/03 15:39:00;;;;;;;;;;;;;;;;;;5087677;28;19987;-51
2021/11/03 15:41:26;;;;;;;;;;;;;;;;;;5087172;28;19908;-51
2021/11/03 15:43:52;;;;;;;;;;;;;;;;;;5086894;28;20006;-50
2021/11/03 15:46:18;;;;;;;;;;;;;;;;;;5086973;28;19911;-51
2021/11/03 15:48:44;;;;;;;;;;;;;;;;;;5086741;28;19926;-49
2021/11/03 15:51:10;;;;;;;;;;;;;;;;;;5086838;28;20016;-51
2021/11/03 15:53:36;;;;;;;;;;;;;;;;;;5086967;28;20390;-48
2021/11/03 15:56:04;;;;;;;;;;;;;;;;;;5087257;28;19904;-49
2021/11/03 15:58:30;;;;;;;;;;;;;;;;;;5087623;28;19947;-51
2021/11/03 16:00:56;;;;;;;;;;;;;;;;;;5086665;28;20016;-50
2021/11/03 16:03:22;;;;;;;;;;;;;;;;;;5086928;28;19908;-49
2021/11/03 16:05:49;;;;;;;;;;;;;;;;;;5086755;28;19908;-47
2021/11/03 16:08:15;;;;;;;;;;;;;;;;;;5086690;28;20153;-47
2021/11/03 16:10:41;;;;;;;;;;;;;;;;;;5086561;28;19926;-51
2021/11/03 16:13:06;;;;;;;;;;;;;;;;;;5086392;28;19923;-47
2021/11/03 16:15:32;;;;;;;;;;;;;;;;;;5086718;28;20387;-48
2021/11/03 16:17:58;;;;;;;;;;;;;;;;;;5087017;28;19919;-50
2021/11/03 16:20:25;;;;;;;;;;;;;;;;;;5086506;28;19951;-46
2021/11/03 16:22:51;;;;;;;;;;;;;;;;;;5077930;28;19915;-47
2021/11/03 16:25:17;;;;;;;;;;;;;;;;;;5067787;28;19920;-48
2021/11/03 16:27:43;;;;;;;;;;;;;;;;;;5085316;28;19918;-51
2021/11/03 16:30:09;;;;;;;;;;;;;;;;;;5087482;28;20020;-52
2021/11/03 16:32:35;;;;;;;;;;;;;;;;;;5087749;28;19908;-50
2021/11/03 16:35:01;;;;;;;;;;;;;;;;;;5073072;28;19913;-51
2021/11/03 16:37:27;;;;;;;;;;;;;;;;;;5086669;28;19947;-52